PWSweather.com
Personal Weather Stations
Station Observations
CALONGE
CalongeES 17251

CalongeES 17251

Lat: 41.85972222, Lon: 3.077777778

Elevation: 16

Station Type: Oregon WMR928N

www.calonge-meteoweb.com

High Low Average
Temperature 55.0°F12.8°C 41.0°F5.0°C 50.1°F10.1°C
Dew Point 50.8°F10.4°C 29.5°F-1.4°C 42.6°F5.9°C
Winds 12.0 mph 19.3 kmh Calm Calm 2.0 mph SSE3.2 kmh SSE
Wind Gusts 19.0 mph30.6 kmh -- 5.0 mph8.0 kmh
Humidity 95% 41% 77%
Pressure 30.24 in1024.0 mb 30.09 in1019.0 mb -
Precipitation 0.14 in3.6 mm - -
Hour Temp Dew Point Humidity Winds Wind Gusts Pressure Precip Precip Rate Daily Precip Total
12:00 AM 49.6°F9.8°C 44.7°F7.1°C 83% Calm Calm -- 30.12 in1020.0 mb 0.00 in0.0 mm 0.00 in0.0 mm 0.00 in0.0 mm
12:15 AM 49.3°F9.6°C 45.0°F7.2°C 85% Calm Calm 6.4 mph10.3 kmh 30.15 in1021.0 mb 0.00 in0.0 mm 0.00 in0.0 mm 0.00 in0.0 mm
12:30 AM 49.3°F9.6°C 46.2°F7.9°C 89% Calm Calm 7.6 mph12.2 kmh 30.15 in1021.0 mb 0.00 in0.0 mm 0.00 in0.0 mm 0.00 in0.0 mm
12:45 AM 49.8°F9.9°C 47.3°F8.5°C 91% Calm Calm -- 30.12 in1020.0 mb 0.00 in0.0 mm 0.00 in0.0 mm 0.00 in0.0 mm
01:00 AM 50.4°F10.2°C 47.5°F8.6°C 90% Calm Calm -- 30.12 in1020.0 mb 0.00 in0.0 mm 0.00 in0.0 mm 0.00 in0.0 mm
01:15 AM 50.9°F10.5°C 47.8°F8.8°C 89% Calm Calm -- 30.12 in1020.0 mb 0.00 in0.0 mm 0.00 in0.0 mm 0.00 in0.0 mm
01:30 AM 51.3°F10.7°C 48.1°F8.9°C 89% Calm Calm -- 30.12 in1020.0 mb 0.00 in0.0 mm 0.00 in0.0 mm 0.00 in0.0 mm
01:45 AM 51.6°F10.9°C 48.2°F9.0°C 88% Calm Calm -- 30.12 in1020.0 mb 0.00 in0.0 mm 0.00 in0.0 mm 0.00 in0.0 mm
02:00 AM 51.8°F11.0°C 48.1°F8.9°C 87% Calm Calm -- 30.12 in1020.0 mb 0.00 in0.0 mm 0.00 in0.0 mm 0.00 in0.0 mm
02:15 AM 52.2°F11.2°C 48.4°F9.1°C 87% Calm Calm -- 30.12 in1020.0 mb 0.00 in0.0 mm 0.00 in0.0 mm 0.00 in0.0 mm
02:30 AM 52.3°F11.3°C 48.6°F9.2°C 87% Calm Calm -- 30.12 in1020.0 mb 0.00 in0.0 mm 0.00 in0.0 mm 0.00 in0.0 mm
02:45 AM 52.3°F11.3°C 48.6°F9.2°C 87% Calm Calm -- 30.12 in1020.0 mb 0.00 in0.0 mm 0.00 in0.0 mm 0.00 in0.0 mm
03:00 AM 52.5°F11.4°C 48.8°F9.3°C 87% Calm Calm -- 30.12 in1020.0 mb 0.00 in0.0 mm 0.00 in0.0 mm 0.00 in0.0 mm
03:15 AM 52.7°F11.5°C 49.2°F9.6°C 88% Calm Calm -- 30.09 in1019.0 mb 0.00 in0.0 mm 0.00 in0.0 mm 0.00 in0.0 mm
03:30 AM 52.7°F11.5°C 49.2°F9.6°C 88% Calm Calm -- 30.12 in1020.0 mb 0.00 in0.0 mm 0.00 in0.0 mm 0.00 in0.0 mm
03:45 AM 52.5°F11.4°C 49.1°F9.5°C 88% Calm Calm -- 30.09 in1019.0 mb 0.00 in0.0 mm 0.00 in0.0 mm 0.00 in0.0 mm
04:00 AM 52.3°F11.3°C 48.6°F9.2°C 87% Calm Calm -- 30.09 in1019.0 mb 0.00 in0.0 mm 0.00 in0.0 mm 0.00 in0.0 mm
04:15 AM 52.0°F11.1°C 48.2°F9.0°C 87% Calm Calm -- 30.09 in1019.0 mb 0.00 in0.0 mm 0.00 in0.0 mm 0.00 in0.0 mm
04:30 AM 51.3°F10.7°C 47.5°F8.6°C 87% Calm Calm -- 30.09 in1019.0 mb 0.00 in0.0 mm 0.00 in0.0 mm 0.00 in0.0 mm
04:45 AM 50.9°F10.5°C 47.5°F8.6°C 88% Calm Calm -- 30.09 in1019.0 mb 0.00 in0.0 mm 0.00 in0.0 mm 0.00 in0.0 mm
05:00 AM 50.5°F10.3°C 48.0°F8.9°C 91% Calm Calm -- 30.09 in1019.0 mb 0.00 in0.0 mm 0.00 in0.0 mm 0.00 in0.0 mm
05:15 AM 50.7°F10.4°C 48.5°F9.2°C 92% Calm Calm -- 30.09 in1019.0 mb 0.00 in0.0 mm 0.00 in0.0 mm 0.00 in0.0 mm
05:30 AM 51.1°F10.6°C 49.4°F9.7°C 94% Calm Calm -- 30.09 in1019.0 mb 0.00 in0.0 mm 0.00 in0.0 mm 0.00 in0.0 mm
05:45 AM 52.2°F11.2°C 50.8°F10.4°C 95% 4.7 mph WNW7.6 kmh WNW 7.0 mph11.3 kmh 30.09 in1019.0 mb 0.00 in0.0 mm 0.00 in0.0 mm 0.00 in0.0 mm
06:00 AM 52.5°F11.4°C 49.4°F9.7°C 89% 4.1 mph NW6.6 kmh NW 8.2 mph13.2 kmh 30.09 in1019.0 mb 0.00 in0.0 mm 0.00 in0.0 mm 0.00 in0.0 mm
06:15 AM 52.7°F11.5°C 42.0°F5.6°C 67% Calm Calm 7.0 mph11.3 kmh 30.09 in1019.0 mb 0.00 in0.0 mm 0.00 in0.0 mm 0.00 in0.0 mm
06:30 AM 52.5°F11.4°C 35.9°F2.2°C 53% 8.8 mph NW14.2 kmh NW 14.4 mph23.2 kmh 30.09 in1019.0 mb 0.00 in0.0 mm 0.00 in0.0 mm 0.00 in0.0 mm
06:45 AM 52.9°F11.6°C 33.2°F0.7°C 47% 8.2 mph NW13.2 kmh NW 16.7 mph26.9 kmh 30.09 in1019.0 mb 0.00 in0.0 mm 0.00 in0.0 mm 0.00 in0.0 mm
07:00 AM 52.7°F11.5°C 34.1°F1.2°C 49% 2.9 mph NNW4.7 kmh NNW 11.4 mph18.3 kmh 30.09 in1019.0 mb 0.00 in0.0 mm 0.00 in0.0 mm 0.00 in0.0 mm
07:15 AM 52.5°F11.4°C 34.4°F1.3°C 50% 7.0 mph NW11.3 kmh NW 10.0 mph16.1 kmh 30.09 in1019.0 mb 0.00 in0.0 mm 0.00 in0.0 mm 0.00 in0.0 mm
07:30 AM 52.5°F11.4°C 33.4°F0.8°C 48% 5.9 mph NW9.5 kmh NW 8.2 mph13.2 kmh 30.09 in1019.0 mb 0.00 in0.0 mm 0.00 in0.0 mm 0.00 in0.0 mm
07:45 AM 52.5°F11.4°C 32.3°F0.2°C 46% 8.2 mph NW13.2 kmh NW 14.4 mph23.2 kmh 30.12 in1020.0 mb 0.00 in0.0 mm 0.00 in0.0 mm 0.00 in0.0 mm
08:00 AM 52.5°F11.4°C 31.2°F-0.4°C 44% 8.8 mph NW14.2 kmh NW 13.2 mph21.2 kmh 30.12 in1020.0 mb 0.00 in0.0 mm 0.00 in0.0 mm 0.00 in0.0 mm
08:15 AM 52.5°F11.4°C 30.6°F-0.8°C 43% 7.0 mph NW11.3 kmh NW 16.7 mph26.9 kmh 30.12 in1020.0 mb 0.00 in0.0 mm 0.00 in0.0 mm 0.00 in0.0 mm
08:30 AM 52.5°F11.4°C 29.5°F-1.4°C 41% 5.9 mph NNW9.5 kmh NNW 16.7 mph26.9 kmh 30.12 in1020.0 mb 0.00 in0.0 mm 0.00 in0.0 mm 0.00 in0.0 mm
08:45 AM 52.5°F11.4°C 29.5°F-1.4°C 41% 5.9 mph NNW9.5 kmh NNW 16.1 mph25.9 kmh 30.12 in1020.0 mb 0.00 in0.0 mm 0.00 in0.0 mm 0.00 in0.0 mm
09:00 AM 52.3°F11.3°C 29.9°F-1.2°C 42% 7.0 mph NNW11.3 kmh NNW 14.4 mph23.2 kmh 30.12 in1020.0 mb 0.00 in0.0 mm 0.00 in0.0 mm 0.00 in0.0 mm
09:15 AM 52.0°F11.1°C 31.8°F-0.1°C 46% 12.0 mph NW19.3 kmh NW 19.0 mph30.6 kmh 30.12 in1020.0 mb 0.00 in0.0 mm 0.00 in0.0 mm 0.00 in0.0 mm
09:30 AM 50.5°F10.3°C 35.9°F2.2°C 57% 10.8 mph NW17.4 kmh NW 17.3 mph27.8 kmh 30.12 in1020.0 mb 0.00 in0.0 mm 0.00 in0.0 mm 0.00 in0.0 mm
09:45 AM 48.9°F9.4°C 39.9°F4.4°C 71% 7.6 mph NW12.2 kmh NW 14.9 mph24.0 kmh 30.12 in1020.0 mb 0.00 in0.0 mm 0.00 in0.0 mm 0.00 in0.0 mm
10:00 AM 47.8°F8.8°C 41.3°F5.2°C 78% 8.2 mph NW13.2 kmh NW 13.8 mph22.2 kmh 30.12 in1020.0 mb 0.02 in0.5 mm 0.03 in0.8 mm 0.02 in0.5 mm
10:15 AM 47.3°F8.5°C 41.8°F5.4°C 81% 8.8 mph NW14.2 kmh NW 11.4 mph18.3 kmh 30.15 in1021.0 mb 0.04 in1.0 mm 0.08 in2.0 mm 0.04 in1.0 mm
10:30 AM 47.1°F8.4°C 41.9°F5.5°C 82% 5.3 mph NW8.5 kmh NW 14.4 mph23.2 kmh 30.15 in1021.0 mb 0.09 in2.3 mm 0.20 in5.1 mm 0.09 in2.3 mm
10:45 AM 46.9°F8.3°C 41.7°F5.4°C 82% 5.3 mph WNW8.5 kmh WNW 10.8 mph17.4 kmh 30.15 in1021.0 mb 0.10 in2.5 mm 0.04 in1.0 mm 0.10 in2.5 mm
11:00 AM 47.1°F8.4°C 40.3°F4.6°C 77% 5.3 mph WNW8.5 kmh WNW 16.7 mph26.9 kmh 30.15 in1021.0 mb 0.09 in2.3 mm 0.00 in0.0 mm 0.11 in2.8 mm
11:15 AM 47.5°F8.6°C 39.3°F4.1°C 73% 8.2 mph WNW13.2 kmh WNW 11.4 mph18.3 kmh 30.15 in1021.0 mb 0.08 in2.0 mm 0.00 in0.0 mm 0.12 in3.0 mm
11:30 AM 47.5°F8.6°C 39.9°F4.4°C 75% Calm Calm 7.0 mph11.3 kmh 30.15 in1021.0 mb 0.04 in1.0 mm 0.00 in0.0 mm 0.13 in3.3 mm
11:45 AM 47.5°F8.6°C 41.0°F5.0°C 78% Calm Calm 10.5 mph16.9 kmh 30.15 in1021.0 mb 0.02 in0.5 mm 0.00 in0.0 mm 0.13 in3.3 mm
12:00 PM 47.5°F8.6°C 40.3°F4.6°C 76% Calm Calm -- 30.15 in1021.0 mb 0.02 in0.5 mm 0.00 in0.0 mm 0.13 in3.3 mm
12:15 PM 47.7°F8.7°C 40.1°F4.5°C 75% Calm Calm -- 30.15 in1021.0 mb 0.01 in0.3 mm 0.00 in0.0 mm 0.13 in3.3 mm
12:30 PM 48.2°F9.0°C 38.1°F3.4°C 68% 4.1 mph NW6.6 kmh NW 5.3 mph8.5 kmh 30.15 in1021.0 mb 0.00 in0.0 mm 0.00 in0.0 mm 0.13 in3.3 mm
12:45 PM 48.4°F9.1°C 38.3°F3.5°C 68% Calm Calm 5.9 mph9.5 kmh 30.15 in1021.0 mb 0.00 in0.0 mm 0.00 in0.0 mm 0.13 in3.3 mm
01:00 PM 48.7°F9.3°C 38.6°F3.7°C 68% Calm Calm -- 30.15 in1021.0 mb 0.00 in0.0 mm 0.00 in0.0 mm 0.13 in3.3 mm
01:15 PM 48.7°F9.3°C 40.5°F4.7°C 73% Calm Calm -- 30.15 in1021.0 mb 0.00 in0.0 mm 0.00 in0.0 mm 0.13 in3.3 mm
01:30 PM 48.9°F9.4°C 41.0°F5.0°C 74% Calm Calm -- 30.15 in1021.0 mb 0.00 in0.0 mm 0.00 in0.0 mm 0.13 in3.3 mm
01:45 PM 49.1°F9.5°C 41.5°F5.3°C 75% Calm Calm -- 30.15 in1021.0 mb 0.00 in0.0 mm 0.00 in0.0 mm 0.13 in3.3 mm
02:00 PM 49.6°F9.8°C 42.0°F5.6°C 75% Calm Calm -- 30.12 in1020.0 mb 0.00 in0.0 mm 0.00 in0.0 mm 0.13 in3.3 mm
02:15 PM 50.0°F10.0°C 41.7°F5.4°C 73% Calm Calm -- 30.12 in1020.0 mb 0.00 in0.0 mm 0.00 in0.0 mm 0.13 in3.3 mm
02:30 PM 50.2°F10.1°C 42.2°F5.7°C 74% Calm Calm -- 30.12 in1020.0 mb 0.00 in0.0 mm 0.00 in0.0 mm 0.13 in3.3 mm
02:45 PM 50.4°F10.2°C 42.0°F5.6°C 73% Calm Calm -- 30.12 in1020.0 mb 0.00 in0.0 mm 0.00 in0.0 mm 0.13 in3.3 mm
03:00 PM 50.7°F10.4°C 42.4°F5.8°C 73% Calm Calm -- 30.12 in1020.0 mb 0.00 in0.0 mm 0.00 in0.0 mm 0.13 in3.3 mm
03:15 PM 51.4°F10.8°C 43.4°F6.3°C 74% Calm Calm -- 30.12 in1020.0 mb 0.00 in0.0 mm 0.00 in0.0 mm 0.13 in3.3 mm
03:30 PM 52.0°F11.1°C 43.9°F6.6°C 74% Calm Calm -- 30.12 in1020.0 mb 0.00 in0.0 mm 0.00 in0.0 mm 0.13 in3.3 mm
03:45 PM 52.7°F11.5°C 44.3°F6.8°C 73% Calm Calm -- 30.12 in1020.0 mb 0.00 in0.0 mm 0.00 in0.0 mm 0.13 in3.3 mm
04:00 PM 53.8°F12.1°C 46.0°F7.8°C 75% 4.1 mph WSW6.6 kmh WSW 7.6 mph12.2 kmh 30.12 in1020.0 mb 0.00 in0.0 mm 0.00 in0.0 mm 0.13 in3.3 mm
04:15 PM 53.8°F12.1°C 46.0°F7.8°C 75% 8.2 mph WSW13.2 kmh WSW 10.8 mph17.4 kmh 30.12 in1020.0 mb 0.00 in0.0 mm 0.00 in0.0 mm 0.13 in3.3 mm
04:30 PM 53.4°F11.9°C 47.1°F8.4°C 79% 7.0 mph WSW11.3 kmh WSW 10.5 mph16.9 kmh 30.12 in1020.0 mb 0.01 in0.3 mm 0.04 in1.0 mm 0.13 in3.3 mm
04:45 PM 54.0°F12.2°C 46.9°F8.3°C 77% 6.4 mph W10.3 kmh W 8.2 mph13.2 kmh 30.12 in1020.0 mb 0.01 in0.3 mm 0.00 in0.0 mm 0.13 in3.3 mm
05:00 PM 54.7°F12.6°C 46.6°F8.1°C 74% 4.7 mph SW7.6 kmh SW 8.2 mph13.2 kmh 30.12 in1020.0 mb 0.01 in0.3 mm 0.00 in0.0 mm 0.13 in3.3 mm
05:15 PM 55.0°F12.8°C 45.8°F7.7°C 71% Calm Calm 10.0 mph16.1 kmh 30.12 in1020.0 mb 0.01 in0.3 mm 0.00 in0.0 mm 0.13 in3.3 mm
05:30 PM 54.3°F12.4°C 45.1°F7.3°C 71% Calm Calm 8.8 mph14.2 kmh 30.15 in1021.0 mb 0.00 in0.0 mm 0.00 in0.0 mm 0.13 in3.3 mm
05:45 PM 54.0°F12.2°C 45.5°F7.5°C 73% 4.7 mph W7.6 kmh W 10.0 mph16.1 kmh 30.15 in1021.0 mb 0.00 in0.0 mm 0.00 in0.0 mm 0.13 in3.3 mm
06:00 PM 53.6°F12.0°C 45.2°F7.3°C 73% 2.9 mph WSW4.7 kmh WSW 8.2 mph13.2 kmh 30.15 in1021.0 mb 0.00 in0.0 mm 0.00 in0.0 mm 0.13 in3.3 mm
06:15 PM 53.2°F11.8°C 45.5°F7.5°C 75% Calm Calm 6.4 mph10.3 kmh 30.18 in1022.0 mb 0.00 in0.0 mm 0.00 in0.0 mm 0.13 in3.3 mm
06:30 PM 52.9°F11.6°C 45.2°F7.3°C 75% Calm Calm -- 30.18 in1022.0 mb 0.00 in0.0 mm 0.00 in0.0 mm 0.13 in3.3 mm
06:45 PM 52.5°F11.4°C 45.2°F7.3°C 76% Calm Calm -- 30.18 in1022.0 mb 0.00 in0.0 mm 0.00 in0.0 mm 0.13 in3.3 mm
07:00 PM 52.5°F11.4°C 45.5°F7.5°C 77% Calm Calm -- 30.18 in1022.0 mb 0.00 in0.0 mm 0.00 in0.0 mm 0.13 in3.3 mm
07:15 PM 51.6°F10.9°C 44.6°F7.0°C 77% Calm Calm -- 30.18 in1022.0 mb 0.00 in0.0 mm 0.00 in0.0 mm 0.13 in3.3 mm
07:30 PM 50.4°F10.2°C 44.7°F7.1°C 81% 5.3 mph NW8.5 kmh NW 7.0 mph11.3 kmh 30.18 in1022.0 mb 0.00 in0.0 mm 0.00 in0.0 mm 0.13 in3.3 mm
07:45 PM 50.2°F10.1°C 45.5°F7.5°C 84% 5.9 mph NW9.5 kmh NW 7.0 mph11.3 kmh 30.21 in1023.0 mb 0.00 in0.0 mm 0.00 in0.0 mm 0.13 in3.3 mm
08:00 PM 49.8°F9.9°C 45.5°F7.5°C 85% Calm Calm 5.3 mph8.5 kmh 30.21 in1023.0 mb 0.00 in0.0 mm 0.00 in0.0 mm 0.13 in3.3 mm
08:15 PM 49.3°F9.6°C 44.6°F7.0°C 84% Calm Calm -- 30.21 in1023.0 mb 0.00 in0.0 mm 0.00 in0.0 mm 0.13 in3.3 mm
08:30 PM 48.4°F9.1°C 44.1°F6.7°C 85% 4.1 mph WNW6.6 kmh WNW 5.9 mph9.5 kmh 30.21 in1023.0 mb 0.00 in0.0 mm 0.00 in0.0 mm 0.13 in3.3 mm
08:45 PM 47.7°F8.7°C 43.7°F6.5°C 86% Calm Calm 9.4 mph15.1 kmh 30.21 in1023.0 mb 0.00 in0.0 mm 0.00 in0.0 mm 0.13 in3.3 mm
09:00 PM 46.6°F8.1°C 42.3°F5.7°C 85% Calm Calm -- 30.21 in1023.0 mb 0.00 in0.0 mm 0.00 in0.0 mm 0.13 in3.3 mm
09:15 PM 45.9°F7.7°C 41.9°F5.5°C 86% Calm Calm 8.2 mph13.2 kmh 30.21 in1023.0 mb 0.00 in0.0 mm 0.00 in0.0 mm 0.13 in3.3 mm
09:45 PM 44.8°F7.1°C 41.4°F5.2°C 88% 5.9 mph W9.5 kmh W 7.6 mph12.2 kmh 30.24 in1024.0 mb 0.02 in0.5 mm 0.04 in1.0 mm 0.14 in3.6 mm
10:00 PM 44.4°F6.9°C 41.4°F5.2°C 89% Calm Calm -- 30.24 in1024.0 mb 0.02 in0.5 mm 0.00 in0.0 mm 0.14 in3.6 mm
10:15 PM 44.2°F6.8°C 41.2°F5.1°C 89% Calm Calm 5.3 mph8.5 kmh 30.24 in1024.0 mb 0.02 in0.5 mm 0.00 in0.0 mm 0.14 in3.6 mm
10:30 PM 43.3°F6.3°C 39.7°F4.3°C 87% Calm Calm 7.0 mph11.3 kmh 30.24 in1024.0 mb 0.00 in0.0 mm 0.00 in0.0 mm 0.14 in3.6 mm
10:45 PM 42.8°F6.0°C 39.5°F4.2°C 88% Calm Calm -- 30.24 in1024.0 mb 0.00 in0.0 mm 0.00 in0.0 mm 0.14 in3.6 mm
11:00 PM 42.3°F5.7°C 39.5°F4.2°C 90% Calm Calm -- 30.24 in1024.0 mb 0.00 in0.0 mm 0.00 in0.0 mm 0.14 in3.6 mm
11:15 PM 42.1°F5.6°C 39.6°F4.2°C 91% 2.9 mph W4.7 kmh W 7.6 mph12.2 kmh 30.24 in1024.0 mb 0.00 in0.0 mm 0.00 in0.0 mm 0.14 in3.6 mm
11:30 PM 41.5°F5.3°C 39.4°F4.1°C 92% 6.4 mph W10.3 kmh W 7.6 mph12.2 kmh 30.24 in1024.0 mb 0.00 in0.0 mm 0.00 in0.0 mm 0.14 in3.6 mm
11:45 PM 41.0°F5.0°C 38.9°F3.8°C 92% Calm Calm 4.7 mph7.6 kmh 30.24 in1024.0 mb 0.00 in0.0 mm 0.00 in0.0 mm 0.14 in3.6 mm